Time;durP1;ratioP1;P1;durP2;ratioP2;P2;SDS_P1;SDS_P2;PMS_P1;PMS_P2;Temp;Humidity;BMP_temperature;BMP_pressure;BME280_temperature;BME280_humidity;BME280_pressure;Samples;Min_cycle;Max_cycle;Signal;HPM_P1;HPM_P2
2023/02/17 00:00:11;;;;;;;13.30;8.27;;;8.90;99.90;;;;;;474180;250;28012;-76
2023/02/17 00:02:12;;;;;;;15.20;9.33;;;8.90;99.90;;;;;;474145;250;27517;-76
2023/02/17 00:04:13;;;;;;;14.37;8.57;;;8.90;99.90;;;;;;474170;250;27881;-76
2023/02/17 00:06:14;;;;;;;14.80;9.97;;;8.90;99.90;;;;;;474172;250;27750;-76
2023/02/17 00:08:16;;;;;;;14.10;8.70;;;8.90;99.90;;;;;;474013;250;28547;-75
2023/02/17 00:10:17;;;;;;;12.83;8.13;;;8.90;99.90;;;;;;474161;250;28554;-76
2023/02/17 00:12:18;;;;;;;13.03;9.07;;;8.90;99.90;;;;;;474101;250;27902;-75
2023/02/17 00:14:20;;;;;;;12.13;8.10;;;8.90;99.90;;;;;;474127;250;28007;-75
2023/02/17 00:16:21;;;;;;;15.23;9.77;;;8.90;99.90;;;;;;473257;250;27869;-77
2023/02/17 00:18:22;;;;;;;13.10;9.00;;;8.90;99.90;;;;;;473936;247;27897;-76
2023/02/17 00:20:23;;;;;;;12.23;8.70;;;8.90;99.90;;;;;;473967;250;27874;-76
2023/02/17 00:22:25;;;;;;;15.97;8.80;;;8.90;99.90;;;;;;474011;250;27766;-75
2023/02/17 00:24:26;;;;;;;10.53;8.43;;;8.90;99.90;;;;;;474078;250;27483;-76
2023/02/17 00:26:27;;;;;;;13.57;8.90;;;8.90;99.90;;;;;;474077;250;27892;-76
2023/02/17 00:28:28;;;;;;;12.00;8.60;;;8.90;99.90;;;;;;474077;250;27875;-76
2023/02/17 00:30:30;;;;;;;12.20;9.20;;;8.90;99.90;;;;;;474045;251;27633;-77
2023/02/17 00:32:31;;;;;;;13.93;8.40;;;8.90;99.90;;;;;;474092;250;29439;-76
2023/02/17 00:34:32;;;;;;;12.13;9.10;;;8.90;99.90;;;;;;474043;250;28534;-75
2023/02/17 00:36:33;;;;;;;11.83;8.50;;;8.90;99.90;;;;;;474157;250;28316;-77
2023/02/17 00:38:35;;;;;;;17.17;9.90;;;8.90;99.90;;;;;;474153;250;27994;-76
2023/02/17 00:40:37;;;;;;;16.50;10.10;;;8.90;99.90;;;;;;474109;250;27697;-77
2023/02/17 00:42:37;;;;;;;15.03;9.37;;;8.90;99.90;;;;;;474131;250;27905;-76
2023/02/17 00:44:38;;;;;;;12.23;8.40;;;8.90;99.90;;;;;;474113;250;27833;-76
2023/02/17 00:46:40;;;;;;;13.23;9.07;;;8.90;99.90;;;;;;474048;250;28042;-76
2023/02/17 00:48:41;;;;;;;17.30;9.00;;;8.90;99.90;;;;;;474143;250;27724;-76
2023/02/17 00:50:42;;;;;;;12.63;8.10;;;8.90;99.90;;;;;;474148;250;28037;-77
2023/02/17 00:52:43;;;;;;;12.80;8.43;;;8.80;99.90;;;;;;474189;250;27870;-76
2023/02/17 00:54:45;;;;;;;15.67;10.07;;;8.80;99.90;;;;;;473910;250;27921;-76
2023/02/17 00:56:46;;;;;;;17.90;9.60;;;8.80;99.90;;;;;;473724;250;28726;-77
2023/02/17 00:58:47;;;;;;;13.67;9.40;;;8.90;99.90;;;;;;474069;250;28485;-75
2023/02/17 01:00:48;;;;;;;19.70;9.83;;;8.90;99.90;;;;;;474173;250;28618;-76
2023/02/17 01:02:50;;;;;;;15.50;9.60;;;8.90;99.90;;;;;;474086;250;27866;-76
2023/02/17 01:04:51;;;;;;;15.33;9.20;;;8.90;99.90;;;;;;474133;250;27994;-75
2023/02/17 01:06:52;;;;;;;15.20;9.20;;;8.90;99.90;;;;;;474166;250;27929;-77
2023/02/17 01:08:53;;;;;;;18.50;9.40;;;8.90;99.90;;;;;;474165;250;27989;-76
2023/02/17 01:10:55;;;;;;;15.40;10.10;;;8.90;99.90;;;;;;474166;250;28090;-75
2023/02/17 01:12:56;;;;;;;17.00;9.50;;;8.90;99.90;;;;;;474157;250;28070;-74
2023/02/17 01:14:57;;;;;;;18.73;9.60;;;8.90;99.90;;;;;;474122;250;28012;-76
2023/02/17 01:16:58;;;;;;;18.80;9.83;;;8.90;99.90;;;;;;474119;250;27911;-76
2023/02/17 01:19:00;;;;;;;12.17;8.90;;;8.90;99.90;;;;;;474173;250;28414;-75
2023/02/17 01:21:01;;;;;;;16.13;9.00;;;8.90;99.90;;;;;;474174;250;28625;-75
2023/02/17 01:23:02;;;;;;;12.73;8.50;;;8.90;99.90;;;;;;474131;250;28261;-76
2023/02/17 01:25:03;;;;;;;17.60;10.13;;;8.90;99.90;;;;;;474136;250;28393;-76
2023/02/17 01:27:05;;;;;;;14.50;8.60;;;8.90;99.90;;;;;;474173;250;27860;-75
2023/02/17 01:29:06;;;;;;;16.20;9.40;;;8.90;99.90;;;;;;474152;250;27826;-76
2023/02/17 01:31:07;;;;;;;15.43;9.80;;;8.90;99.90;;;;;;474165;250;27444;-77
2023/02/17 01:33:08;;;;;;;13.07;8.20;;;8.90;99.90;;;;;;473671;247;27764;-76
2023/02/17 01:35:10;;;;;;;12.93;8.20;;;8.90;99.90;;;;;;474160;250;28094;-77
2023/02/17 01:37:11;;;;;;;13.43;9.47;;;8.90;99.90;;;;;;474140;250;28108;-77
2023/02/17 01:39:12;;;;;;;15.20;9.47;;;8.90;99.90;;;;;;474106;250;27757;-76
2023/02/17 01:41:13;;;;;;;12.30;8.40;;;8.90;99.90;;;;;;474138;249;27664;-77
2023/02/17 01:43:15;;;;;;;13.53;8.93;;;8.90;99.90;;;;;;474128;250;28383;-76
2023/02/17 01:45:16;;;;;;;12.73;8.20;;;8.90;99.90;;;;;;474090;250;28597;-76
2023/02/17 01:47:17;;;;;;;14.93;9.43;;;8.90;99.90;;;;;;474129;250;28441;-76
2023/02/17 01:49:18;;;;;;;16.10;9.50;;;8.90;99.90;;;;;;474092;250;28172;-76
2023/02/17 01:51:20;;;;;;;11.77;8.20;;;8.90;99.90;;;;;;474135;250;27568;-76
2023/02/17 01:53:21;;;;;;;17.30;8.93;;;8.90;99.90;;;;;;474111;250;27932;-76
2023/02/17 01:55:22;;;;;;;20.17;10.00;;;8.90;99.90;;;;;;474081;250;27877;-76
2023/02/17 01:57:23;;;;;;;13.20;9.60;;;8.90;99.90;;;;;;474116;250;28055;-77
2023/02/17 01:59:25;;;;;;;15.43;8.43;;;8.80;99.90;;;;;;474153;250;27882;-76
2023/02/17 02:01:26;;;;;;;14.00;8.83;;;8.80;99.90;;;;;;474127;250;27906;-76
2023/02/17 02:03:27;;;;;;;12.00;8.73;;;8.80;99.90;;;;;;474195;250;27963;-75
2023/02/17 02:05:28;;;;;;;10.97;8.83;;;8.80;99.90;;;;;;474080;250;27759;-76
2023/02/17 02:07:30;;;;;;;13.73;9.33;;;8.80;99.90;;;;;;474125;247;28421;-77
2023/02/17 02:09:31;;;;;;;15.23;9.80;;;8.80;99.90;;;;;;474140;250;28232;-76
2023/02/17 02:11:32;;;;;;;14.23;9.57;;;8.70;99.90;;;;;;473819;250;28503;-76
2023/02/17 02:13:33;;;;;;;11.10;8.60;;;8.70;99.90;;;;;;473384;250;28296;-76
2023/02/17 02:15:35;;;;;;;14.80;8.90;;;8.70;99.90;;;;;;473872;250;27993;-76
2023/02/17 02:17:36;;;;;;;11.50;8.20;;;8.70;99.90;;;;;;474127;250;27919;-76
2023/02/17 02:19:37;;;;;;;20.17;10.47;;;8.70;99.90;;;;;;474137;250;27644;-76
2023/02/17 02:21:38;;;;;;;16.50;9.43;;;8.60;99.90;;;;;;474096;250;28029;-76
2023/02/17 02:23:40;;;;;;;18.40;10.73;;;8.60;99.90;;;;;;474120;250;27652;-76
2023/02/17 02:25:41;;;;;;;10.13;8.47;;;8.60;99.90;;;;;;474132;250;27649;-75
2023/02/17 02:27:42;;;;;;;17.23;10.17;;;8.50;99.90;;;;;;474138;250;27877;-77
2023/02/17 02:29:43;;;;;;;11.47;8.13;;;8.50;99.90;;;;;;474152;250;27868;-75
2023/02/17 02:31:45;;;;;;;11.50;8.40;;;8.50;99.90;;;;;;474110;250;28455;-77
2023/02/17 02:33:46;;;;;;;17.63;10.70;;;8.50;99.90;;;;;;474086;250;28483;-76
2023/02/17 02:35:47;;;;;;;17.40;11.37;;;8.50;99.90;;;;;;473928;251;28470;-77
2023/02/17 02:37:48;;;;;;;14.50;9.57;;;8.50;99.90;;;;;;474114;250;27580;-76
2023/02/17 02:39:50;;;;;;;16.50;10.60;;;8.50;99.90;;;;;;474147;250;28110;-76
2023/02/17 02:41:51;;;;;;;15.50;10.57;;;8.50;99.90;;;;;;474139;250;27988;-77
2023/02/17 02:43:52;;;;;;;13.90;9.13;;;8.40;99.90;;;;;;474128;250;27504;-75
2023/02/17 02:45:53;;;;;;;18.17;11.00;;;8.40;99.90;;;;;;474110;250;27907;-76
2023/02/17 02:47:55;;;;;;;17.20;9.87;;;8.40;99.90;;;;;;474171;250;27980;-76
2023/02/17 02:49:56;;;;;;;19.63;11.10;;;8.40;99.90;;;;;;474127;250;27865;-75
2023/02/17 02:51:57;;;;;;;13.03;9.57;;;8.40;99.90;;;;;;474126;250;28465;-77
2023/02/17 02:53:58;;;;;;;16.77;11.13;;;8.30;99.90;;;;;;474106;250;29125;-75
2023/02/17 02:56:00;;;;;;;17.70;10.27;;;8.30;99.90;;;;;;474149;250;28461;-75
2023/02/17 02:58:01;;;;;;;21.73;11.63;;;8.20;99.90;;;;;;474139;250;27532;-77
2023/02/17 03:00:04;;;;;;;18.93;10.93;;;8.20;99.90;;;;;;474110;250;27861;-75
2023/02/17 03:02:03;;;;;;;16.13;10.27;;;8.10;99.90;;;;;;474111;250;27910;-76
2023/02/17 03:04:05;;;;;;;16.63;11.20;;;8.20;99.90;;;;;;474135;250;27896;-76
2023/02/17 03:06:06;;;;;;;16.80;11.00;;;8.10;99.90;;;;;;473899;251;27906;-76
2023/02/17 03:08:07;;;;;;;19.13;12.73;;;8.20;99.90;;;;;;474103;250;27911;-75
2023/02/17 03:10:08;;;;;;;23.13;11.70;;;8.10;99.90;;;;;;474099;250;28332;-77
2023/02/17 03:12:10;;;;;;;20.50;12.97;;;8.10;99.90;;;;;;474142;250;27929;-75
2023/02/17 03:14:11;;;;;;;18.57;12.60;;;8.00;99.90;;;;;;474144;250;28158;-77
2023/02/17 03:16:13;;;;;;;16.10;11.50;;;8.00;99.90;;;;;;474108;250;27961;-75
2023/02/17 03:18:13;;;;;;;13.60;8.87;;;8.00;99.90;;;;;;474110;250;27784;-77
2023/02/17 03:20:15;;;;;;;17.33;9.77;;;8.00;99.90;;;;;;474141;247;27887;-76
2023/02/17 03:22:16;;;;;;;18.40;10.53;;;8.00;99.90;;;;;;474081;250;28005;-77
2023/02/17 03:24:17;;;;;;;18.80;11.10;;;8.00;99.90;;;;;;473902;251;27946;-76
2023/02/17 03:26:19;;;;;;;20.10;12.17;;;8.00;99.90;;;;;;474110;250;27901;-76
2023/02/17 03:28:20;;;;;;;12.30;9.30;;;8.00;99.90;;;;;;474131;250;27775;-76
2023/02/17 03:30:21;;;;;;;12.90;8.97;;;8.00;99.90;;;;;;474136;250;28336;-76
2023/02/17 03:32:22;;;;;;;14.40;9.70;;;8.00;99.90;;;;;;474088;250;28058;-75
2023/02/17 03:34:24;;;;;;;15.53;11.07;;;8.00;99.90;;;;;;474108;250;28187;-76
2023/02/17 03:36:25;;;;;;;14.73;9.70;;;8.00;99.90;;;;;;474114;250;27978;-76
2023/02/17 03:38:26;;;;;;;19.00;11.97;;;8.00;99.90;;;;;;474110;250;27928;-76
2023/02/17 03:40:27;;;;;;;21.73;12.73;;;8.00;99.90;;;;;;474147;250;27835;-76
2023/02/17 03:42:29;;;;;;;17.47;10.40;;;8.00;99.90;;;;;;474120;250;28032;-76
2023/02/17 03:44:30;;;;;;;21.50;11.33;;;7.90;99.90;;;;;;474125;250;27920;-77
2023/02/17 03:46:31;;;;;;;16.63;10.37;;;8.00;99.90;;;;;;474130;250;27889;-75
2023/02/17 03:48:32;;;;;;;19.40;11.07;;;7.90;99.90;;;;;;474174;250;27926;-76
2023/02/17 03:50:34;;;;;;;21.73;11.80;;;8.00;99.90;;;;;;474041;250;28393;-75
2023/02/17 03:52:35;;;;;;;16.03;10.20;;;8.00;99.90;;;;;;473922;250;28474;-76
2023/02/17 03:54:36;;;;;;;18.70;11.40;;;7.90;99.90;;;;;;474106;250;27880;-77
2023/02/17 03:56:37;;;;;;;12.97;9.90;;;7.90;99.90;;;;;;474128;250;27896;-75
2023/02/17 03:58:39;;;;;;;18.00;11.47;;;7.90;99.90;;;;;;474126;250;27888;-76
2023/02/17 04:00:40;;;;;;;18.80;12.00;;;7.90;99.90;;;;;;474144;250;27984;-76
2023/02/17 04:02:41;;;;;;;17.57;11.30;;;7.90;99.90;;;;;;474111;250;28067;-76
2023/02/17 04:04:42;;;;;;;15.80;10.10;;;7.90;99.90;;;;;;473946;251;27932;-77
2023/02/17 04:06:44;;;;;;;16.23;10.27;;;7.90;99.90;;;;;;474096;250;27909;-76
2023/02/17 04:08:45;;;;;;;17.40;9.17;;;7.90;99.90;;;;;;474127;250;28357;-76
2023/02/17 04:10:46;;;;;;;16.40;10.87;;;7.90;99.90;;;;;;474128;250;28343;-76
2023/02/17 04:12:47;;;;;;;18.30;10.63;;;7.90;99.90;;;;;;474125;250;28020;-76
2023/02/17 04:14:49;;;;;;;13.30;9.00;;;7.90;99.90;;;;;;474137;250;27922;-77
2023/02/17 04:16:50;;;;;;;19.33;10.10;;;7.90;99.90;;;;;;474148;250;27994;-77
2023/02/17 04:18:51;;;;;;;13.43;10.20;;;7.90;99.90;;;;;;474027;250;28033;-77
2023/02/17 04:20:52;;;;;;;15.60;10.43;;;7.90;99.90;;;;;;474095;250;27516;-76
2023/02/17 04:22:54;;;;;;;13.43;10.00;;;7.90;99.90;;;;;;474153;250;28301;-76
2023/02/17 04:24:55;;;;;;;15.50;10.73;;;7.90;99.90;;;;;;474132;250;27895;-77
2023/02/17 04:26:56;;;;;;;14.40;10.43;;;7.90;99.90;;;;;;474152;250;27494;-76
2023/02/17 04:28:57;;;;;;;14.03;9.87;;;7.90;99.90;;;;;;474171;250;28392;-77
2023/02/17 04:30:59;;;;;;;14.43;10.57;;;7.90;99.90;;;;;;474134;250;28988;-76
2023/02/17 04:33:00;;;;;;;9.97;8.07;;;7.90;99.90;;;;;;474173;250;28257;-76
2023/02/17 04:35:01;;;;;;;13.20;9.70;;;7.90;99.90;;;;;;474164;250;27907;-77
2023/02/17 04:37:02;;;;;;;9.13;7.50;;;7.90;99.90;;;;;;474132;250;27894;-76
2023/02/17 04:39:04;;;;;;;9.93;8.30;;;7.90;99.90;;;;;;474135;250;27692;-76
2023/02/17 04:41:05;;;;;;;12.97;9.67;;;7.90;99.90;;;;;;474100;250;28018;-76
2023/02/17 04:43:07;;;;;;;12.53;9.07;;;7.90;99.90;;;;;;474145;250;27524;-76
2023/02/17 04:45:07;;;;;;;11.50;9.23;;;7.90;99.90;;;;;;474113;250;27810;-78
2023/02/17 04:47:09;;;;;;;10.87;7.87;;;7.90;99.90;;;;;;474126;250;27903;-76
2023/02/17 04:49:10;;;;;;;13.63;8.80;;;7.90;99.90;;;;;;474119;250;27937;-76
2023/02/17 04:51:11;;;;;;;11.70;8.70;;;8.00;99.90;;;;;;474119;250;27530;-78
2023/02/17 04:53:12;;;;;;;9.80;8.40;;;7.90;99.90;;;;;;474126;250;27863;-76
2023/02/17 04:55:14;;;;;;;10.33;8.30;;;7.90;99.90;;;;;;474117;250;28518;-76
2023/02/17 04:57:15;;;;;;;14.07;9.13;;;7.90;99.90;;;;;;474131;250;28342;-76
2023/02/17 04:59:16;;;;;;;11.00;7.80;;;7.90;99.90;;;;;;474137;250;28372;-76
2023/02/17 05:01:17;;;;;;;9.40;7.83;;;7.90;99.90;;;;;;474133;250;28372;-76
2023/02/17 05:03:19;;;;;;;8.83;7.23;;;7.90;99.90;;;;;;474144;250;27854;-76
2023/02/17 05:05:20;;;;;;;12.03;8.40;;;7.90;99.90;;;;;;474136;250;28094;-77
2023/02/17 05:07:21;;;;;;;13.93;9.00;;;7.90;99.90;;;;;;474131;250;27525;-75
2023/02/17 05:09:22;;;;;;;8.97;7.50;;;7.90;99.90;;;;;;474147;250;27991;-75
2023/02/17 05:11:24;;;;;;;7.10;6.30;;;7.90;99.90;;;;;;474149;250;28341;-75
2023/02/17 05:13:26;;;;;;;11.00;8.03;;;7.90;99.90;;;;;;474176;250;27771;-76
2023/02/17 05:15:26;;;;;;;7.70;6.83;;;7.90;99.90;;;;;;474098;250;27822;-77
2023/02/17 05:17:27;;;;;;;10.70;7.77;;;8.00;99.90;;;;;;474153;250;27748;-76
2023/02/17 05:19:29;;;;;;;9.20;7.47;;;7.90;99.90;;;;;;473991;250;27774;-76
2023/02/17 05:21:30;;;;;;;10.80;7.33;;;8.00;99.90;;;;;;473922;250;27897;-78
2023/02/17 05:23:31;;;;;;;11.10;8.60;;;8.00;99.90;;;;;;473633;250;28513;-77
2023/02/17 05:25:32;;;;;;;9.90;8.53;;;8.00;99.90;;;;;;474139;250;27945;-77
2023/02/17 05:27:34;;;;;;;15.07;9.80;;;7.90;99.90;;;;;;474192;250;28772;-75
2023/02/17 05:29:35;;;;;;;10.60;7.63;;;7.90;99.90;;;;;;474153;250;28413;-76
2023/02/17 05:31:36;;;;;;;9.30;7.90;;;8.00;99.90;;;;;;474182;250;27817;-77
2023/02/17 05:33:37;;;;;;;7.97;7.13;;;8.00;99.90;;;;;;474161;250;27748;-76
2023/02/17 05:35:39;;;;;;;13.70;9.87;;;8.00;99.90;;;;;;474127;250;28027;-77
2023/02/17 05:37:40;;;;;;;14.33;9.40;;;8.00;99.90;;;;;;474158;250;27403;-76
2023/02/17 05:39:41;;;;;;;12.40;8.87;;;8.00;99.90;;;;;;474164;250;27925;-77
2023/02/17 05:41:42;;;;;;;11.17;8.90;;;8.00;99.90;;;;;;474137;250;28252;-77
2023/02/17 05:43:44;;;;;;;11.43;8.80;;;8.00;99.90;;;;;;474154;247;27502;-76
2023/02/17 05:45:45;;;;;;;9.83;7.80;;;8.00;99.90;;;;;;474113;250;28016;-77
2023/02/17 05:47:46;;;;;;;11.10;7.90;;;8.00;99.90;;;;;;474128;250;27980;-76
2023/02/17 05:49:47;;;;;;;8.23;7.07;;;8.00;99.90;;;;;;474123;250;27791;-76
2023/02/17 05:51:49;;;;;;;10.23;8.90;;;8.00;99.90;;;;;;474122;250;27800;-77
2023/02/17 05:53:50;;;;;;;9.97;7.53;;;8.00;99.90;;;;;;474135;250;28582;-76
2023/02/17 05:55:51;;;;;;;10.77;7.13;;;8.00;99.90;;;;;;474114;247;28292;-77
2023/02/17 05:57:52;;;;;;;10.60;7.63;;;8.00;99.90;;;;;;474108;250;28313;-76
2023/02/17 05:59:54;;;;;;;8.23;6.90;;;8.00;99.90;;;;;;474048;250;27779;-76
2023/02/17 06:01:55;;;;;;;13.23;7.93;;;8.00;99.90;;;;;;474119;250;27915;-76
2023/02/17 06:03:56;;;;;;;7.57;6.43;;;8.00;99.90;;;;;;474130;250;27851;-75
2023/02/17 06:05:57;;;;;;;9.83;7.33;;;8.00;99.90;;;;;;474135;250;27919;-77
2023/02/17 06:07:59;;;;;;;7.53;6.73;;;8.00;99.90;;;;;;479259;247;27920;-76
2023/02/17 06:10:00;;;;;;;7.60;6.90;;;8.10;99.90;;;;;;482937;243;27777;-76
2023/02/17 06:12:01;;;;;;;8.27;6.87;;;8.00;99.90;;;;;;481930;246;28109;-77
2023/02/17 06:14:02;;;;;;;8.40;6.47;;;8.10;99.90;;;;;;481754;243;27890;-76
2023/02/17 06:16:04;;;;;;;6.57;5.80;;;8.00;99.90;;;;;;482946;245;27998;-77
2023/02/17 06:18:05;;;;;;;7.80;6.40;;;8.00;99.90;;;;;;481908;243;27890;-76
2023/02/17 06:20:06;;;;;;;11.70;6.50;;;8.00;99.90;;;;;;482934;245;27868;-76
2023/02/17 06:22:07;;;;;;;6.87;6.10;;;8.10;99.90;;;;;;481947;246;28046;-78
2023/02/17 06:24:09;;;;;;;6.87;5.83;;;8.10;99.90;;;;;;482924;245;28199;-76
2023/02/17 06:26:10;;;;;;;6.67;5.97;;;8.00;99.90;;;;;;481939;243;28462;-76
2023/02/17 06:28:11;;;;;;;6.37;5.57;;;8.00;99.90;;;;;;482899;245;28371;-76
2023/02/17 06:30:13;;;;;;;6.50;5.77;;;8.10;99.90;;;;;;481941;246;28474;-76
2023/02/17 06:32:14;;;;;;;6.27;5.67;;;8.10;99.90;;;;;;481918;246;28678;-75
2023/02/17 06:34:15;;;;;;;6.90;6.17;;;8.10;99.90;;;;;;482923;245;28466;-76
2023/02/17 06:36:16;;;;;;;7.60;5.77;;;8.10;99.90;;;;;;481943;246;28037;-77
2023/02/17 06:38:17;;;;;;;12.53;7.20;;;8.10;99.90;;;;;;481959;246;27941;-75
2023/02/17 06:40:19;;;;;;;6.97;5.80;;;8.10;99.90;;;;;;482913;245;27945;-76
2023/02/17 06:42:20;;;;;;;8.23;6.53;;;8.20;99.90;;;;;;481937;246;28012;-76
2023/02/17 06:44:21;;;;;;;6.93;5.70;;;8.10;99.90;;;;;;482896;245;27845;-76
2023/02/17 06:46:22;;;;;;;7.00;6.17;;;8.20;99.90;;;;;;481962;246;27773;-77
2023/02/17 06:48:24;;;;;;;6.20;5.60;;;8.10;99.90;;;;;;482732;245;28064;-77
2023/02/17 06:50:25;;;;;;;6.53;5.93;;;8.20;99.90;;;;;;481966;246;28139;-76
2023/02/17 06:52:26;;;;;;;7.37;6.13;;;8.10;99.90;;;;;;482961;245;28092;-75
2023/02/17 06:54:27;;;;;;;7.37;6.67;;;8.20;99.90;;;;;;481956;243;27944;-76
2023/02/17 06:56:29;;;;;;;12.03;7.10;;;8.20;99.90;;;;;;476577;243;27887;-78
2023/02/17 06:58:31;;;;;;;8.10;6.20;;;8.20;99.90;;;;;;474701;250;27929;-77
2023/02/17 07:00:31;;;;;;;7.80;6.40;;;8.20;99.90;;;;;;459060;255;27616;-77
2023/02/17 07:02:32;;;;;;;9.40;6.17;;;8.20;99.90;;;;;;476187;250;28763;-77
2023/02/17 07:04:34;;;;;;;5.70;5.20;;;8.20;99.90;;;;;;476273;250;28361;-76
2023/02/17 07:06:35;;;;;;;5.80;5.20;;;8.20;99.90;;;;;;479400;247;28271;-77
2023/02/17 07:08:36;;;;;;;6.70;5.80;;;8.20;99.90;;;;;;481469;246;28409;-76
2023/02/17 07:10:37;;;;;;;7.27;6.23;;;8.20;99.90;;;;;;481349;246;28398;-77
2023/02/17 07:12:39;;;;;;;7.30;6.53;;;8.20;99.90;;;;;;482729;245;28004;-75
2023/02/17 07:14:40;;;;;;;7.00;6.30;;;8.20;99.90;;;;;;482711;246;27853;-76
2023/02/17 07:16:41;;;;;;;7.07;6.20;;;8.30;99.90;;;;;;477206;243;28003;-78
2023/02/17 07:18:42;;;;;;;7.50;6.13;;;8.20;99.90;;;;;;474077;247;27845;-77
2023/02/17 07:20:44;;;;;;;8.87;7.10;;;8.30;99.90;;;;;;474031;247;28020;-76
2023/02/17 07:22:45;;;;;;;7.30;6.50;;;8.30;99.90;;;;;;473358;250;28027;-76
2023/02/17 07:24:46;;;;;;;8.43;6.20;;;8.30;99.90;;;;;;473363;250;28100;-76
2023/02/17 07:26:47;;;;;;;6.87;6.17;;;8.30;99.90;;;;;;473332;250;27924;-76
2023/02/17 07:30:54;;;;;;;5.83;5.27;;;8.30;99.90;;;;;;474940;247;27955;-75
2023/02/17 07:32:55;;;;;;;6.03;5.33;;;8.30;99.90;;;;;;482948;245;28092;-76
2023/02/17 07:37:02;;;;;;;5.93;5.20;;;8.30;99.90;;;;;;470785;252;27830;-75
2023/02/17 07:39:03;;;;;;;7.10;6.07;;;8.40;99.90;;;;;;482735;246;27977;-76
2023/02/17 07:41:12;;;;;;;6.10;5.50;;;8.30;99.90;;;;;;481935;242;28397;-76
2023/02/17 07:43:13;;;;;;;6.60;5.50;;;8.30;99.90;;;;;;491403;241;27564;-75
2023/02/17 07:45:14;;;;;;;5.40;4.90;;;8.40;99.90;;;;;;490500;241;27924;-75
2023/02/17 07:47:15;;;;;;;5.53;4.93;;;8.40;99.90;;;;;;483925;245;27539;-75
2023/02/17 07:49:17;;;;;;;5.40;4.90;;;8.40;99.90;;;;;;466330;254;27958;-76
2023/02/17 07:51:18;;;;;;;4.43;4.03;;;8.40;99.90;;;;;;468952;253;28024;-76
2023/02/17 07:53:20;;;;;;;5.17;4.70;;;8.40;99.90;;;;;;469013;253;28138;-75
2023/02/17 07:55:26;;;;;;;4.27;3.87;;;8.40;99.90;;;;;;462629;253;27992;-75
2023/02/17 07:57:27;;;;;;;4.20;3.80;;;8.40;99.90;;;;;;483703;246;27770;-75
2023/02/17 07:59:29;;;;;;;5.30;4.80;;;8.40;99.90;;;;;;477093;249;27785;-75
2023/02/17 08:01:30;;;;;;;5.00;4.50;;;8.50;99.90;;;;;;476705;249;27893;-75
2023/02/17 08:03:32;;;;;;;4.77;4.23;;;8.50;99.90;;;;;;484708;245;28072;-75
2023/02/17 08:05:40;;;;;;;3.83;3.43;;;8.50;99.90;;;;;;492226;240;27490;-76
2023/02/17 08:07:40;;;;;;;4.70;4.30;;;8.50;99.90;;;;;;491070;241;27597;-75
2023/02/17 08:14:21;;;;;;;6.00;5.27;;;8.60;99.90;;;;;;473558;249;28033;-76
2023/02/17 08:16:22;;;;;;;4.60;4.20;;;8.60;99.90;;;;;;481940;245;28360;-75
2023/02/17 08:18:23;;;;;;;6.00;5.30;;;8.50;99.90;;;;;;476586;249;27873;-76
2023/02/17 08:22:47;;;;;;;5.23;4.73;;;8.60;99.90;;;;;;473176;245;28331;-74
2023/02/17 08:24:48;;;;;;;6.87;5.80;;;8.60;99.90;;;;;;464909;255;28808;-74
2023/02/17 08:26:49;;;;;;;5.10;4.60;;;8.60;99.90;;;;;;476237;248;28016;-74
2023/02/17 08:29:02;;;;;;;6.37;5.67;;;8.60;99.90;;;;;;479926;247;28475;-75
2023/02/17 08:31:03;;;;;;;7.20;5.50;;;8.70;99.90;;;;;;477169;247;27958;-74
2023/02/17 08:33:04;;;;;;;6.80;5.07;;;8.70;99.90;;;;;;461065;258;27881;-77
2023/02/17 08:35:06;;;;;;;7.13;6.33;;;8.70;99.90;;;;;;466424;254;27938;-77
2023/02/17 08:37:08;;;;;;;6.00;5.30;;;8.70;99.90;;;;;;478081;247;28438;-76
2023/02/17 08:39:09;;;;;;;7.63;6.83;;;8.70;99.90;;;;;;475795;249;28012;-75
2023/02/17 08:43:16;;;;;;;6.53;5.90;;;8.70;99.90;;;;;;475529;250;28516;-75
2023/02/17 08:45:18;;;;;;;8.20;6.77;;;8.70;99.90;;;;;;475502;249;28078;-77
2023/02/17 08:47:21;;;;;;;7.33;6.23;;;8.70;99.90;;;;;;473487;249;28057;-77
2023/02/17 08:49:22;;;;;;;11.37;6.83;;;8.70;99.90;;;;;;477992;249;28112;-74
2023/02/17 08:53:38;;;;;;;8.10;7.00;;;8.80;99.90;;;;;;465797;252;27788;-76
2023/02/17 08:55:45;;;;;;;8.37;6.63;;;8.80;99.90;;;;;;458068;257;28039;-76
2023/02/17 08:57:46;;;;;;;9.37;7.17;;;8.80;99.90;;;;;;479009;248;27976;-76
2023/02/17 08:59:48;;;;;;;10.30;7.20;;;8.90;99.90;;;;;;460536;255;28116;-76
2023/02/17 09:01:49;;;;;;;9.17;7.40;;;8.90;99.90;;;;;;471550;245;28649;-76
2023/02/17 09:03:56;;;;;;;8.70;7.60;;;8.90;99.90;;;;;;465345;254;28108;-76
2023/02/17 09:05:58;;;;;;;10.50;7.47;;;9.00;99.90;;;;;;465805;255;28053;-76
2023/02/17 09:07:59;;;;;;;8.93;7.40;;;9.00;99.90;;;;;;465145;252;27506;-75
2023/02/17 09:10:00;;;;;;;7.90;6.47;;;9.00;99.90;;;;;;462678;255;27999;-76
2023/02/17 09:12:01;;;;;;;7.43;6.50;;;9.00;99.90;;;;;;466198;250;27997;-76
2023/02/17 09:14:03;;;;;;;9.03;7.80;;;9.00;99.90;;;;;;465796;255;28028;-76
2023/02/17 09:16:10;;;;;;;8.23;7.30;;;9.00;99.90;;;;;;465642;255;28238;-76
2023/02/17 09:18:12;;;;;;;8.30;6.40;;;9.00;99.90;;;;;;465690;255;27952;-76
2023/02/17 09:20:13;;;;;;;9.10;7.80;;;9.00;99.90;;;;;;465791;255;28427;-76
2023/02/17 09:22:16;;;;;;;9.40;7.60;;;9.00;99.90;;;;;;465800;255;28541;-76
2023/02/17 09:24:17;;;;;;;10.90;7.77;;;9.00;99.90;;;;;;465782;255;27964;-76
2023/02/17 09:26:18;;;;;;;10.80;8.03;;;9.00;99.90;;;;;;465898;255;27782;-76
2023/02/17 09:28:19;;;;;;;9.23;7.60;;;9.00;99.90;;;;;;464786;255;36711;-76
2023/02/17 09:30:20;;;;;;;8.97;8.00;;;9.00;99.90;;;;;;465893;255;27956;-76
2023/02/17 09:32:22;;;;;;;12.40;8.20;;;9.00;99.90;;;;;;465921;254;28092;-76
2023/02/17 09:34:31;;;;;;;11.70;9.43;;;9.00;99.90;;;;;;465893;255;28527;-76
2023/02/17 09:36:32;;;;;;;12.17;8.80;;;9.00;99.90;;;;;;462718;252;27871;-76
2023/02/17 09:38:37;;;;;;;12.80;10.50;;;9.10;99.90;;;;;;462423;257;28202;-76
2023/02/17 09:40:38;;;;;;;7.50;6.60;;;9.30;99.90;;;;;;470060;253;28273;-76
2023/02/17 09:42:56;;;;;;;6.00;5.40;;;9.30;99.90;;;;;;480056;248;28069;-76
2023/02/17 09:44:58;;;;;;;11.90;9.77;;;9.30;99.90;;;;;;466389;252;27689;-76
2023/02/17 09:46:59;;;;;;;16.60;14.70;;;9.40;99.90;;;;;;470858;251;28050;-76
2023/02/17 09:49:00;;;;;;;7.70;6.27;;;9.40;99.90;;;;;;477146;248;28491;-75
2023/02/17 09:53:18;;;;;;;6.17;5.57;;;9.50;99.90;;;;;;478614;247;27792;-76
2023/02/17 09:55:20;;;;;;;6.77;5.00;;;9.50;99.90;;;;;;488460;241;28008;-78
2023/02/17 09:57:21;;;;;;;6.83;5.73;;;9.50;99.90;;;;;;482909;245;27692;-76
2023/02/17 09:59:23;;;;;;;7.53;6.73;;;9.50;99.90;;;;;;482427;245;27861;-76
2023/02/17 10:05:50;;;;;;;5.33;4.83;;;9.40;99.90;;;;;;468970;248;28017;-75
2023/02/17 10:07:51;;;;;;;5.73;5.20;;;9.50;99.90;;;;;;458359;254;27944;-75
2023/02/17 10:10:01;;;;;;;6.97;5.23;;;9.50;99.90;;;;;;461432;255;27714;-76
2023/02/17 10:12:02;;;;;;;11.80;7.50;;;9.50;99.90;;;;;;472762;250;27937;-75
2023/02/17 10:14:03;;;;;;;5.57;5.03;;;9.50;99.90;;;;;;460955;256;27703;-75
2023/02/17 10:16:04;;;;;;;7.40;5.70;;;9.30;99.90;;;;;;460907;258;28536;-75
2023/02/17 10:18:08;;;;;;;8.70;5.90;;;9.30;99.90;;;;;;460994;258;28394;-75
2023/02/17 10:20:09;;;;;;;7.20;6.07;;;9.20;99.90;;;;;;469338;253;27964;-76
2023/02/17 10:22:10;;;;;;;6.50;5.90;;;9.10;99.90;;;;;;469381;253;27438;-75
2023/02/17 10:24:12;;;;;;;6.80;6.10;;;9.10;99.90;;;;;;469372;252;27952;-76
2023/02/17 10:26:13;;;;;;;11.67;10.33;;;9.10;99.90;;;;;;461694;250;27790;-77
2023/02/17 10:28:15;;;;;;;8.70;7.20;;;9.10;99.90;;;;;;457296;258;27899;-76
2023/02/17 10:30:16;;;;;;;8.40;6.47;;;9.10;99.90;;;;;;465450;249;27954;-75
2023/02/17 10:32:21;;;;;;;9.40;6.60;;;9.20;99.90;;;;;;465431;255;28132;-76
2023/02/17 10:34:21;;;;;;;7.33;6.03;;;9.20;99.90;;;;;;458223;254;28127;-76
2023/02/17 10:36:22;;;;;;;9.33;7.20;;;9.30;99.90;;;;;;456996;255;27435;-74
2023/02/17 10:38:24;;;;;;;7.20;6.13;;;9.30;99.90;;;;;;455473;259;28186;-77
2023/02/17 10:40:25;;;;;;;7.53;6.20;;;9.40;99.90;;;;;;465358;255;28226;-77
2023/02/17 10:42:26;;;;;;;7.43;6.20;;;9.40;99.90;;;;;;465446;255;27934;-77
2023/02/17 10:44:27;;;;;;;8.40;6.50;;;9.40;99.90;;;;;;456445;260;28538;-76
2023/02/17 10:46:29;;;;;;;9.27;7.90;;;9.40;99.90;;;;;;456717;259;28487;-76
2023/02/17 10:48:42;;;;;;;7.47;6.33;;;9.50;99.90;;;;;;456702;258;28290;-76
2023/02/17 10:55:13;;;;;;;6.20;5.60;;;9.60;99.90;;;;;;483943;245;28261;-76
2023/02/17 10:57:14;;;;;;;6.63;5.80;;;9.60;99.90;;;;;;474217;251;28391;-76
2023/02/17 10:59:17;;;;;;;6.30;5.70;;;9.60;99.90;;;;;;481559;247;28409;-76
2023/02/17 11:01:19;;;;;;;5.60;4.80;;;9.50;99.90;;;;;;477222;249;27727;-75